sensor_id;sensor_type;location;lat;lon;timestamp;P1;durP1;ratioP1;P2;durP2;ratioP2
75758;SDS011;64371;47.566;19.086;2023-06-10T00:00:31;9.68;;;6.13;;
75758;SDS011;64371;47.566;19.086;2023-06-10T00:03:34;12.00;;;6.00;;
75758;SDS011;64371;47.566;19.086;2023-06-10T00:06:38;12.98;;;6.68;;
75758;SDS011;64371;47.566;19.086;2023-06-10T00:09:41;15.27;;;6.53;;
75758;SDS011;64371;47.566;19.086;2023-06-10T00:12:43;8.02;;;5.78;;
75758;SDS011;64371;47.566;19.086;2023-06-10T00:15:46;9.77;;;5.65;;
75758;SDS011;64371;47.566;19.086;2023-06-10T00:18:48;9.07;;;5.88;;
75758;SDS011;64371;47.566;19.086;2023-06-10T00:21:53;10.95;;;6.20;;
75758;SDS011;64371;47.566;19.086;2023-06-10T00:24:55;8.17;;;6.13;;
75758;SDS011;64371;47.566;19.086;2023-06-10T00:27:58;11.32;;;6.63;;
75758;SDS011;64371;47.566;19.086;2023-06-10T00:31:03;8.77;;;6.10;;
75758;SDS011;64371;47.566;19.086;2023-06-10T00:34:07;9.75;;;6.05;;
75758;SDS011;64371;47.566;19.086;2023-06-10T00:37:10;10.40;;;5.78;;
75758;SDS011;64371;47.566;19.086;2023-06-10T00:40:12;8.33;;;6.00;;
75758;SDS011;64371;47.566;19.086;2023-06-10T00:43:16;11.52;;;5.85;;
75758;SDS011;64371;47.566;19.086;2023-06-10T00:46:18;11.85;;;6.25;;
75758;SDS011;64371;47.566;19.086;2023-06-10T00:49:22;10.60;;;6.05;;
75758;SDS011;64371;47.566;19.086;2023-06-10T00:52:26;12.50;;;5.72;;
75758;SDS011;64371;47.566;19.086;2023-06-10T00:55:31;9.07;;;5.80;;
75758;SDS011;64371;47.566;19.086;2023-06-10T00:58:34;9.40;;;5.93;;
75758;SDS011;64371;47.566;19.086;2023-06-10T01:01:39;8.52;;;5.50;;
75758;SDS011;64371;47.566;19.086;2023-06-10T01:04:41;7.05;;;5.20;;
75758;SDS011;64371;47.566;19.086;2023-06-10T01:07:54;7.50;;;5.13;;
75758;SDS011;64371;47.566;19.086;2023-06-10T01:11:03;13.80;;;5.97;;
75758;SDS011;64371;47.566;19.086;2023-06-10T01:14:09;8.75;;;5.55;;
75758;SDS011;64371;47.566;19.086;2023-06-10T01:17:13;7.95;;;5.55;;
75758;SDS011;64371;47.566;19.086;2023-06-10T01:20:19;12.07;;;6.05;;
75758;SDS011;64371;47.566;19.086;2023-06-10T01:23:21;8.07;;;5.68;;
75758;SDS011;64371;47.566;19.086;2023-06-10T01:26:27;9.77;;;5.37;;
75758;SDS011;64371;47.566;19.086;2023-06-10T01:32:50;8.60;;;5.70;;
75758;SDS011;64371;47.566;19.086;2023-06-10T01:35:54;8.15;;;5.53;;
75758;SDS011;64371;47.566;19.086;2023-06-10T01:39:03;9.70;;;6.18;;
75758;SDS011;64371;47.566;19.086;2023-06-10T01:42:09;11.40;;;6.53;;
75758;SDS011;64371;47.566;19.086;2023-06-10T01:45:13;10.55;;;6.85;;
75758;SDS011;64371;47.566;19.086;2023-06-10T01:48:16;13.52;;;7.22;;
75758;SDS011;64371;47.566;19.086;2023-06-10T01:51:18;12.77;;;7.15;;
75758;SDS011;64371;47.566;19.086;2023-06-10T01:54:20;11.30;;;7.05;;
75758;SDS011;64371;47.566;19.086;2023-06-10T01:57:23;10.73;;;6.93;;
75758;SDS011;64371;47.566;19.086;2023-06-10T02:00:25;11.10;;;7.07;;
75758;SDS011;64371;47.566;19.086;2023-06-10T02:03:28;13.48;;;7.13;;
75758;SDS011;64371;47.566;19.086;2023-06-10T02:06:30;12.35;;;7.07;;
75758;SDS011;64371;47.566;19.086;2023-06-10T02:09:33;11.40;;;7.22;;
75758;SDS011;64371;47.566;19.086;2023-06-10T02:12:38;20.70;;;9.53;;
75758;SDS011;64371;47.566;19.086;2023-06-10T02:15:40;13.77;;;7.20;;
75758;SDS011;64371;47.566;19.086;2023-06-10T02:18:43;13.52;;;8.48;;
75758;SDS011;64371;47.566;19.086;2023-06-10T02:21:46;15.90;;;7.45;;
75758;SDS011;64371;47.566;19.086;2023-06-10T02:24:48;12.70;;;7.95;;
75758;SDS011;64371;47.566;19.086;2023-06-10T02:27:51;12.17;;;7.10;;
75758;SDS011;64371;47.566;19.086;2023-06-10T02:30:53;13.68;;;7.80;;
75758;SDS011;64371;47.566;19.086;2023-06-10T02:33:56;13.65;;;7.28;;
75758;SDS011;64371;47.566;19.086;2023-06-10T02:36:59;13.13;;;7.15;;
75758;SDS011;64371;47.566;19.086;2023-06-10T02:40:04;9.93;;;6.90;;
75758;SDS011;64371;47.566;19.086;2023-06-10T02:43:08;11.23;;;7.27;;
75758;SDS011;64371;47.566;19.086;2023-06-10T02:46:11;10.70;;;6.70;;
75758;SDS011;64371;47.566;19.086;2023-06-10T02:49:15;12.00;;;6.85;;
75758;SDS011;64371;47.566;19.086;2023-06-10T02:52:20;13.07;;;6.82;;
75758;SDS011;64371;47.566;19.086;2023-06-10T02:55:23;14.77;;;6.88;;
75758;SDS011;64371;47.566;19.086;2023-06-10T02:58:32;14.20;;;6.43;;
75758;SDS011;64371;47.566;19.086;2023-06-10T03:01:35;11.93;;;6.95;;
75758;SDS011;64371;47.566;19.086;2023-06-10T03:04:43;10.30;;;6.57;;
75758;SDS011;64371;47.566;19.086;2023-06-10T03:07:51;9.75;;;6.63;;
75758;SDS011;64371;47.566;19.086;2023-06-10T03:10:54;9.38;;;6.93;;
75758;SDS011;64371;47.566;19.086;2023-06-10T03:13:57;11.37;;;6.00;;
75758;SDS011;64371;47.566;19.086;2023-06-10T03:17:01;8.73;;;6.10;;
75758;SDS011;64371;47.566;19.086;2023-06-10T03:20:07;14.45;;;6.22;;
75758;SDS011;64371;47.566;19.086;2023-06-10T03:23:14;9.98;;;5.70;;
75758;SDS011;64371;47.566;19.086;2023-06-10T03:26:18;8.80;;;6.03;;
75758;SDS011;64371;47.566;19.086;2023-06-10T03:29:24;9.57;;;5.77;;
75758;SDS011;64371;47.566;19.086;2023-06-10T03:32:27;7.55;;;5.45;;
75758;SDS011;64371;47.566;19.086;2023-06-10T03:35:31;7.18;;;5.15;;
75758;SDS011;64371;47.566;19.086;2023-06-10T03:38:34;11.20;;;5.50;;
75758;SDS011;64371;47.566;19.086;2023-06-10T03:41:40;10.48;;;5.53;;
75758;SDS011;64371;47.566;19.086;2023-06-10T03:44:43;7.00;;;5.50;;
75758;SDS011;64371;47.566;19.086;2023-06-10T03:47:46;8.40;;;5.50;;
75758;SDS011;64371;47.566;19.086;2023-06-10T03:50:53;7.85;;;5.30;;
75758;SDS011;64371;47.566;19.086;2023-06-10T03:53:56;8.05;;;5.75;;
75758;SDS011;64371;47.566;19.086;2023-06-10T03:56:59;8.45;;;5.68;;
75758;SDS011;64371;47.566;19.086;2023-06-10T04:00:02;7.13;;;5.50;;
75758;SDS011;64371;47.566;19.086;2023-06-10T04:03:15;8.13;;;6.03;;
75758;SDS011;64371;47.566;19.086;2023-06-10T04:06:24;9.75;;;5.85;;
75758;SDS011;64371;47.566;19.086;2023-06-10T04:09:28;9.40;;;5.35;;
75758;SDS011;64371;47.566;19.086;2023-06-10T04:12:31;8.75;;;5.78;;
75758;SDS011;64371;47.566;19.086;2023-06-10T04:15:34;9.30;;;5.50;;
75758;SDS011;64371;47.566;19.086;2023-06-10T04:18:41;8.27;;;5.30;;
75758;SDS011;64371;47.566;19.086;2023-06-10T04:21:45;12.77;;;5.78;;
75758;SDS011;64371;47.566;19.086;2023-06-10T04:24:47;8.38;;;5.93;;
75758;SDS011;64371;47.566;19.086;2023-06-10T04:27:50;8.88;;;5.90;;
75758;SDS011;64371;47.566;19.086;2023-06-10T04:30:52;7.57;;;5.53;;
75758;SDS011;64371;47.566;19.086;2023-06-10T04:33:55;9.13;;;5.20;;
75758;SDS011;64371;47.566;19.086;2023-06-10T04:36:58;11.32;;;5.35;;
75758;SDS011;64371;47.566;19.086;2023-06-10T04:40:01;8.15;;;4.95;;
75758;SDS011;64371;47.566;19.086;2023-06-10T04:43:04;8.18;;;5.43;;
75758;SDS011;64371;47.566;19.086;2023-06-10T04:46:08;8.23;;;5.30;;
75758;SDS011;64371;47.566;19.086;2023-06-10T04:49:11;9.10;;;5.50;;
75758;SDS011;64371;47.566;19.086;2023-06-10T04:52:16;8.30;;;5.50;;
75758;SDS011;64371;47.566;19.086;2023-06-10T04:55:20;6.57;;;5.30;;
75758;SDS011;64371;47.566;19.086;2023-06-10T04:58:23;6.88;;;4.85;;
75758;SDS011;64371;47.566;19.086;2023-06-10T05:01:26;5.63;;;3.93;;
75758;SDS011;64371;47.566;19.086;2023-06-10T05:04:29;8.73;;;4.30;;
75758;SDS011;64371;47.566;19.086;2023-06-10T05:07:31;5.60;;;3.70;;
75758;SDS011;64371;47.566;19.086;2023-06-10T05:10:34;6.05;;;4.40;;
75758;SDS011;64371;47.566;19.086;2023-06-10T05:13:38;8.77;;;4.35;;
75758;SDS011;64371;47.566;19.086;2023-06-10T05:16:42;5.40;;;3.80;;
75758;SDS011;64371;47.566;19.086;2023-06-10T05:19:45;8.15;;;4.28;;
75758;SDS011;64371;47.566;19.086;2023-06-10T05:22:49;4.60;;;3.60;;
75758;SDS011;64371;47.566;19.086;2023-06-10T05:25:51;6.15;;;3.67;;
75758;SDS011;64371;47.566;19.086;2023-06-10T05:28:53;5.30;;;3.67;;
75758;SDS011;64371;47.566;19.086;2023-06-10T05:31:56;7.10;;;4.00;;
75758;SDS011;64371;47.566;19.086;2023-06-10T05:34:59;6.50;;;3.85;;
75758;SDS011;64371;47.566;19.086;2023-06-10T05:38:03;9.02;;;4.20;;
75758;SDS011;64371;47.566;19.086;2023-06-10T05:41:05;6.88;;;4.20;;
75758;SDS011;64371;47.566;19.086;2023-06-10T05:44:07;6.93;;;3.90;;
75758;SDS011;64371;47.566;19.086;2023-06-10T05:47:12;7.03;;;3.70;;
75758;SDS011;64371;47.566;19.086;2023-06-10T05:50:15;7.20;;;3.88;;
75758;SDS011;64371;47.566;19.086;2023-06-10T05:53:17;8.20;;;4.38;;
75758;SDS011;64371;47.566;19.086;2023-06-10T05:56:19;7.78;;;3.80;;
75758;SDS011;64371;47.566;19.086;2023-06-10T05:59:24;6.32;;;3.50;;
75758;SDS011;64371;47.566;19.086;2023-06-10T06:02:26;4.67;;;3.80;;
75758;SDS011;64371;47.566;19.086;2023-06-10T06:05:30;8.05;;;3.80;;
75758;SDS011;64371;47.566;19.086;2023-06-10T06:08:36;5.75;;;3.95;;
75758;SDS011;64371;47.566;19.086;2023-06-10T06:11:39;6.20;;;4.03;;
75758;SDS011;64371;47.566;19.086;2023-06-10T06:14:43;8.05;;;3.72;;
75758;SDS011;64371;47.566;19.086;2023-06-10T06:17:46;5.77;;;3.70;;
75758;SDS011;64371;47.566;19.086;2023-06-10T06:20:49;6.05;;;3.92;;
75758;SDS011;64371;47.566;19.086;2023-06-10T06:23:52;6.90;;;4.03;;
75758;SDS011;64371;47.566;19.086;2023-06-10T06:26:54;5.82;;;4.10;;
75758;SDS011;64371;47.566;19.086;2023-06-10T06:29:56;6.90;;;4.45;;
75758;SDS011;64371;47.566;19.086;2023-06-10T06:33:00;6.43;;;4.73;;
75758;SDS011;64371;47.566;19.086;2023-06-10T06:36:02;5.75;;;4.30;;
75758;SDS011;64371;47.566;19.086;2023-06-10T06:39:05;8.45;;;4.40;;
75758;SDS011;64371;47.566;19.086;2023-06-10T06:42:07;8.50;;;5.47;;
75758;SDS011;64371;47.566;19.086;2023-06-10T06:45:30;8.60;;;5.38;;
75758;SDS011;64371;47.566;19.086;2023-06-10T06:48:33;7.40;;;5.83;;
75758;SDS011;64371;47.566;19.086;2023-06-10T06:51:35;6.03;;;5.28;;
75758;SDS011;64371;47.566;19.086;2023-06-10T06:54:37;7.63;;;5.18;;
75758;SDS011;64371;47.566;19.086;2023-06-10T06:57:40;6.78;;;5.60;;
75758;SDS011;64371;47.566;19.086;2023-06-10T07:00:42;6.68;;;4.68;;
75758;SDS011;64371;47.566;19.086;2023-06-10T07:03:45;5.40;;;4.53;;
75758;SDS011;64371;47.566;19.086;2023-06-10T07:06:47;8.20;;;5.38;;
75758;SDS011;64371;47.566;19.086;2023-06-10T07:09:50;6.95;;;4.70;;
75758;SDS011;64371;47.566;19.086;2023-06-10T07:12:52;6.32;;;4.80;;
75758;SDS011;64371;47.566;19.086;2023-06-10T07:15:55;6.30;;;5.25;;
75758;SDS011;64371;47.566;19.086;2023-06-10T07:18:57;5.80;;;4.87;;
75758;SDS011;64371;47.566;19.086;2023-06-10T07:22:00;7.10;;;4.72;;
75758;SDS011;64371;47.566;19.086;2023-06-10T07:25:02;6.47;;;5.05;;
75758;SDS011;64371;47.566;19.086;2023-06-10T07:28:05;8.02;;;4.85;;
75758;SDS011;64371;47.566;19.086;2023-06-10T07:31:07;6.38;;;4.75;;
75758;SDS011;64371;47.566;19.086;2023-06-10T07:34:12;8.30;;;5.33;;
75758;SDS011;64371;47.566;19.086;2023-06-10T07:37:14;8.32;;;5.85;;
75758;SDS011;64371;47.566;19.086;2023-06-10T07:40:16;6.45;;;5.63;;
75758;SDS011;64371;47.566;19.086;2023-06-10T07:43:23;6.20;;;5.60;;
75758;SDS011;64371;47.566;19.086;2023-06-10T07:46:26;10.13;;;6.35;;
75758;SDS011;64371;47.566;19.086;2023-06-10T07:49:29;10.67;;;6.40;;
75758;SDS011;64371;47.566;19.086;2023-06-10T07:52:32;7.30;;;6.25;;
75758;SDS011;64371;47.566;19.086;2023-06-10T07:55:34;8.48;;;6.93;;
75758;SDS011;64371;47.566;19.086;2023-06-10T07:58:37;8.65;;;7.45;;
75758;SDS011;64371;47.566;19.086;2023-06-10T08:01:39;9.00;;;7.75;;
75758;SDS011;64371;47.566;19.086;2023-06-10T08:04:42;9.40;;;7.63;;
75758;SDS011;64371;47.566;19.086;2023-06-10T08:07:44;8.80;;;6.68;;
75758;SDS011;64371;47.566;19.086;2023-06-10T08:10:47;7.90;;;7.10;;
75758;SDS011;64371;47.566;19.086;2023-06-10T08:13:51;9.30;;;7.50;;
75758;SDS011;64371;47.566;19.086;2023-06-10T08:16:54;8.68;;;7.10;;
75758;SDS011;64371;47.566;19.086;2023-06-10T08:19:56;7.87;;;7.07;;
75758;SDS011;64371;47.566;19.086;2023-06-10T08:22:59;8.30;;;7.07;;
75758;SDS011;64371;47.566;19.086;2023-06-10T08:26:02;8.43;;;6.75;;
75758;SDS011;64371;47.566;19.086;2023-06-10T08:29:05;7.95;;;6.95;;
75758;SDS011;64371;47.566;19.086;2023-06-10T08:32:07;8.18;;;7.30;;
75758;SDS011;64371;47.566;19.086;2023-06-10T08:35:10;7.80;;;7.00;;
75758;SDS011;64371;47.566;19.086;2023-06-10T08:38:13;7.35;;;6.65;;
75758;SDS011;64371;47.566;19.086;2023-06-10T08:41:17;7.90;;;6.57;;
75758;SDS011;64371;47.566;19.086;2023-06-10T08:44:26;7.82;;;7.05;;
75758;SDS011;64371;47.566;19.086;2023-06-10T08:47:30;8.80;;;6.65;;
75758;SDS011;64371;47.566;19.086;2023-06-10T08:50:40;7.27;;;6.57;;
75758;SDS011;64371;47.566;19.086;2023-06-10T08:53:48;7.10;;;6.40;;
75758;SDS011;64371;47.566;19.086;2023-06-10T08:56:55;7.72;;;6.88;;
75758;SDS011;64371;47.566;19.086;2023-06-10T09:00:01;9.38;;;6.97;;
75758;SDS011;64371;47.566;19.086;2023-06-10T09:03:05;9.48;;;7.70;;
75758;SDS011;64371;47.566;19.086;2023-06-10T09:06:11;8.83;;;7.93;;
75758;SDS011;64371;47.566;19.086;2023-06-10T09:09:14;7.18;;;6.47;;
75758;SDS011;64371;47.566;19.086;2023-06-10T09:12:16;8.13;;;7.32;;
75758;SDS011;64371;47.566;19.086;2023-06-10T09:15:19;9.63;;;7.30;;
75758;SDS011;64371;47.566;19.086;2023-06-10T09:18:22;8.75;;;7.07;;
75758;SDS011;64371;47.566;19.086;2023-06-10T09:21:25;7.97;;;7.27;;
75758;SDS011;64371;47.566;19.086;2023-06-10T09:24:27;14.63;;;7.00;;
75758;SDS011;64371;47.566;19.086;2023-06-10T09:27:31;8.18;;;7.38;;
75758;SDS011;64371;47.566;19.086;2023-06-10T09:30:34;8.60;;;6.82;;
75758;SDS011;64371;47.566;19.086;2023-06-10T09:33:37;11.48;;;7.70;;
75758;SDS011;64371;47.566;19.086;2023-06-10T09:36:43;7.60;;;6.67;;
75758;SDS011;64371;47.566;19.086;2023-06-10T09:40:00;6.95;;;4.90;;
75758;SDS011;64371;47.566;19.086;2023-06-10T09:43:12;8.88;;;7.72;;
75758;SDS011;64371;47.566;19.086;2023-06-10T09:46:18;12.20;;;10.38;;
75758;SDS011;64371;47.566;19.086;2023-06-10T09:49:21;12.50;;;10.73;;
75758;SDS011;64371;47.566;19.086;2023-06-10T09:52:25;10.47;;;9.37;;
75758;SDS011;64371;47.566;19.086;2023-06-10T09:55:29;10.77;;;8.70;;
75758;SDS011;64371;47.566;19.086;2023-06-10T09:58:38;13.40;;;9.82;;
75758;SDS011;64371;47.566;19.086;2023-06-10T10:01:41;12.07;;;9.00;;
75758;SDS011;64371;47.566;19.086;2023-06-10T10:04:44;9.73;;;8.70;;
75758;SDS011;64371;47.566;19.086;2023-06-10T10:07:46;8.57;;;7.60;;
75758;SDS011;64371;47.566;19.086;2023-06-10T10:10:49;9.85;;;8.07;;
75758;SDS011;64371;47.566;19.086;2023-06-10T10:13:52;8.70;;;7.80;;
75758;SDS011;64371;47.566;19.086;2023-06-10T10:16:55;9.88;;;7.50;;
75758;SDS011;64371;47.566;19.086;2023-06-10T10:20:01;8.10;;;7.30;;
75758;SDS011;64371;47.566;19.086;2023-06-10T10:23:05;7.90;;;7.10;;
75758;SDS011;64371;47.566;19.086;2023-06-10T10:26:10;7.63;;;6.93;;
75758;SDS011;64371;47.566;19.086;2023-06-10T10:29:20;6.95;;;6.25;;
75758;SDS011;64371;47.566;19.086;2023-06-10T10:32:35;7.10;;;5.75;;
75758;SDS011;64371;47.566;19.086;2023-06-10T10:35:42;7.45;;;6.75;;
75758;SDS011;64371;47.566;19.086;2023-06-10T10:38:45;7.03;;;6.33;;
75758;SDS011;64371;47.566;19.086;2023-06-10T10:41:55;7.50;;;6.70;;
75758;SDS011;64371;47.566;19.086;2023-06-10T10:44:59;8.55;;;7.07;;
75758;SDS011;64371;47.566;19.086;2023-06-10T10:48:10;8.02;;;7.32;;
75758;SDS011;64371;47.566;19.086;2023-06-10T10:51:14;7.85;;;7.05;;
75758;SDS011;64371;47.566;19.086;2023-06-10T10:54:17;7.37;;;6.50;;
75758;SDS011;64371;47.566;19.086;2023-06-10T10:57:21;6.30;;;5.70;;
75758;SDS011;64371;47.566;19.086;2023-06-10T11:00:42;6.25;;;5.65;;
75758;SDS011;64371;47.566;19.086;2023-06-10T11:03:46;6.93;;;5.90;;
75758;SDS011;64371;47.566;19.086;2023-06-10T11:06:53;7.20;;;6.50;;
75758;SDS011;64371;47.566;19.086;2023-06-10T11:09:59;5.93;;;5.33;;
75758;SDS011;64371;47.566;19.086;2023-06-10T11:13:09;6.07;;;5.47;;
75758;SDS011;64371;47.566;19.086;2023-06-10T11:16:19;6.20;;;5.60;;
75758;SDS011;64371;47.566;19.086;2023-06-10T11:19:31;5.90;;;5.40;;
75758;SDS011;64371;47.566;19.086;2023-06-10T11:22:42;8.00;;;6.88;;
75758;SDS011;64371;47.566;19.086;2023-06-10T11:29:15;7.30;;;6.60;;
75758;SDS011;64371;47.566;19.086;2023-06-10T11:32:17;7.72;;;6.68;;
75758;SDS011;64371;47.566;19.086;2023-06-10T11:35:20;7.22;;;6.53;;
75758;SDS011;64371;47.566;19.086;2023-06-10T11:38:25;8.82;;;7.03;;
75758;SDS011;64371;47.566;19.086;2023-06-10T11:41:28;9.00;;;8.10;;
75758;SDS011;64371;47.566;19.086;2023-06-10T11:44:32;8.70;;;7.80;;
75758;SDS011;64371;47.566;19.086;2023-06-10T11:47:39;8.48;;;7.63;;
75758;SDS011;64371;47.566;19.086;2023-06-10T11:50:42;8.32;;;7.47;;
75758;SDS011;64371;47.566;19.086;2023-06-10T11:53:44;5.65;;;5.05;;
75758;SDS011;64371;47.566;19.086;2023-06-10T11:56:47;5.30;;;4.80;;
75758;SDS011;64371;47.566;19.086;2023-06-10T11:59:50;4.38;;;3.97;;
75758;SDS011;64371;47.566;19.086;2023-06-10T12:02:57;4.35;;;3.95;;
75758;SDS011;64371;47.566;19.086;2023-06-10T12:06:06;4.65;;;4.07;;
75758;SDS011;64371;47.566;19.086;2023-06-10T12:12:29;3.60;;;3.30;;
75758;SDS011;64371;47.566;19.086;2023-06-10T12:15:31;2.63;;;2.42;;
75758;SDS011;64371;47.566;19.086;2023-06-10T12:18:34;3.60;;;3.10;;
75758;SDS011;64371;47.566;19.086;2023-06-10T12:21:36;3.30;;;3.00;;
75758;SDS011;64371;47.566;19.086;2023-06-10T12:28:05;3.90;;;3.20;;
75758;SDS011;64371;47.566;19.086;2023-06-10T12:31:08;3.88;;;2.75;;
75758;SDS011;64371;47.566;19.086;2023-06-10T12:34:10;3.50;;;3.20;;
75758;SDS011;64371;47.566;19.086;2023-06-10T12:37:13;3.40;;;3.10;;
75758;SDS011;64371;47.566;19.086;2023-06-10T12:40:15;3.50;;;3.20;;
75758;SDS011;64371;47.566;19.086;2023-06-10T12:43:20;4.90;;;3.03;;
75758;SDS011;64371;47.566;19.086;2023-06-10T12:46:24;3.40;;;3.10;;
75758;SDS011;64371;47.566;19.086;2023-06-10T12:49:26;3.40;;;3.10;;
75758;SDS011;64371;47.566;19.086;2023-06-10T12:52:29;3.60;;;3.10;;
75758;SDS011;64371;47.566;19.086;2023-06-10T12:55:32;4.03;;;2.72;;
75758;SDS011;64371;47.566;19.086;2023-06-10T12:58:35;2.97;;;2.77;;
75758;SDS011;64371;47.566;19.086;2023-06-10T13:01:39;3.72;;;2.80;;
75758;SDS011;64371;47.566;19.086;2023-06-10T13:04:43;2.88;;;2.58;;
75758;SDS011;64371;47.566;19.086;2023-06-10T13:07:46;6.05;;;2.67;;
75758;SDS011;64371;47.566;19.086;2023-06-10T13:10:49;2.72;;;2.50;;
75758;SDS011;64371;47.566;19.086;2023-06-10T13:13:51;2.80;;;2.50;;
75758;SDS011;64371;47.566;19.086;2023-06-10T13:16:54;3.30;;;3.00;;
75758;SDS011;64371;47.566;19.086;2023-06-10T13:19:57;3.00;;;2.70;;
75758;SDS011;64371;47.566;19.086;2023-06-10T13:22:59;3.75;;;2.70;;
75758;SDS011;64371;47.566;19.086;2023-06-10T13:26:01;3.08;;;2.70;;
75758;SDS011;64371;47.566;19.086;2023-06-10T13:29:05;2.97;;;2.77;;
75758;SDS011;64371;47.566;19.086;2023-06-10T13:32:07;3.70;;;3.40;;
75758;SDS011;64371;47.566;19.086;2023-06-10T13:35:10;4.40;;;4.00;;
75758;SDS011;64371;47.566;19.086;2023-06-10T13:38:13;4.00;;;3.60;;
75758;SDS011;64371;47.566;19.086;2023-06-10T13:41:15;6.63;;;4.43;;
75758;SDS011;64371;47.566;19.086;2023-06-10T13:44:18;7.33;;;4.17;;
75758;SDS011;64371;47.566;19.086;2023-06-10T13:47:20;5.78;;;4.90;;
75758;SDS011;64371;47.566;19.086;2023-06-10T13:50:22;5.60;;;4.75;;
75758;SDS011;64371;47.566;19.086;2023-06-10T13:53:25;5.57;;;3.95;;
75758;SDS011;64371;47.566;19.086;2023-06-10T13:56:27;4.43;;;3.40;;
75758;SDS011;64371;47.566;19.086;2023-06-10T13:59:30;4.27;;;3.27;;
75758;SDS011;64371;47.566;19.086;2023-06-10T14:02:32;4.75;;;2.92;;
75758;SDS011;64371;47.566;19.086;2023-06-10T14:05:35;3.97;;;3.58;;
75758;SDS011;64371;47.566;19.086;2023-06-10T14:08:37;4.10;;;3.65;;
75758;SDS011;64371;47.566;19.086;2023-06-10T14:11:39;3.92;;;3.20;;
75758;SDS011;64371;47.566;19.086;2023-06-10T14:14:42;4.73;;;3.00;;
75758;SDS011;64371;47.566;19.086;2023-06-10T14:17:44;4.30;;;2.95;;
75758;SDS011;64371;47.566;19.086;2023-06-10T14:20:47;3.97;;;2.72;;
75758;SDS011;64371;47.566;19.086;2023-06-10T14:23:49;4.13;;;3.00;;
75758;SDS011;64371;47.566;19.086;2023-06-10T14:26:53;4.07;;;3.50;;
75758;SDS011;64371;47.566;19.086;2023-06-10T14:29:56;4.53;;;4.07;;
75758;SDS011;64371;47.566;19.086;2023-06-10T14:32:58;3.67;;;3.30;;
75758;SDS011;64371;47.566;19.086;2023-06-10T14:36:01;4.05;;;2.92;;
75758;SDS011;64371;47.566;19.086;2023-06-10T14:39:04;4.88;;;3.53;;
75758;SDS011;64371;47.566;19.086;2023-06-10T14:42:07;5.43;;;3.60;;
75758;SDS011;64371;47.566;19.086;2023-06-10T14:45:09;5.37;;;2.60;;
75758;SDS011;64371;47.566;19.086;2023-06-10T14:48:12;2.88;;;2.33;;
75758;SDS011;64371;47.566;19.086;2023-06-10T14:51:15;3.58;;;3.28;;
75758;SDS011;64371;47.566;19.086;2023-06-10T14:54:17;3.38;;;3.03;;
75758;SDS011;64371;47.566;19.086;2023-06-10T14:57:19;4.28;;;3.67;;
75758;SDS011;64371;47.566;19.086;2023-06-10T15:00:22;4.23;;;3.10;;
75758;SDS011;64371;47.566;19.086;2023-06-10T15:03:25;3.47;;;2.60;;
75758;SDS011;64371;47.566;19.086;2023-06-10T15:06:28;5.65;;;3.40;;
75758;SDS011;64371;47.566;19.086;2023-06-10T15:09:31;4.50;;;3.50;;
75758;SDS011;64371;47.566;19.086;2023-06-10T15:12:34;3.55;;;3.17;;
75758;SDS011;64371;47.566;19.086;2023-06-10T15:15:36;4.50;;;3.33;;
75758;SDS011;64371;47.566;19.086;2023-06-10T15:18:39;8.63;;;6.28;;
75758;SDS011;64371;47.566;19.086;2023-06-10T15:21:41;5.72;;;3.95;;
75758;SDS011;64371;47.566;19.086;2023-06-10T15:24:43;5.05;;;4.28;;
75758;SDS011;64371;47.566;19.086;2023-06-10T15:27:46;4.20;;;3.72;;
75758;SDS011;64371;47.566;19.086;2023-06-10T15:30:48;3.87;;;3.37;;
75758;SDS011;64371;47.566;19.086;2023-06-10T15:33:51;4.70;;;2.85;;
75758;SDS011;64371;47.566;19.086;2023-06-10T15:36:53;3.28;;;2.92;;
75758;SDS011;64371;47.566;19.086;2023-06-10T15:39:55;4.47;;;3.00;;
75758;SDS011;64371;47.566;19.086;2023-06-10T15:42:58;5.88;;;3.55;;
75758;SDS011;64371;47.566;19.086;2023-06-10T15:46:01;3.33;;;2.63;;
75758;SDS011;64371;47.566;19.086;2023-06-10T15:49:03;3.75;;;2.92;;
75758;SDS011;64371;47.566;19.086;2023-06-10T15:52:06;3.90;;;2.75;;
75758;SDS011;64371;47.566;19.086;2023-06-10T15:55:08;4.35;;;3.10;;
75758;SDS011;64371;47.566;19.086;2023-06-10T15:58:12;3.08;;;2.75;;
75758;SDS011;64371;47.566;19.086;2023-06-10T16:01:14;3.60;;;3.20;;
75758;SDS011;64371;47.566;19.086;2023-06-10T16:04:16;4.75;;;3.30;;
75758;SDS011;64371;47.566;19.086;2023-06-10T16:07:19;3.20;;;2.88;;
75758;SDS011;64371;47.566;19.086;2023-06-10T16:10:21;3.33;;;2.90;;
75758;SDS011;64371;47.566;19.086;2023-06-10T16:13:26;3.00;;;2.70;;
75758;SDS011;64371;47.566;19.086;2023-06-10T16:16:29;5.37;;;2.90;;
75758;SDS011;64371;47.566;19.086;2023-06-10T16:19:31;4.07;;;3.05;;
75758;SDS011;64371;47.566;19.086;2023-06-10T16:22:34;4.60;;;2.92;;
75758;SDS011;64371;47.566;19.086;2023-06-10T16:25:36;5.43;;;2.95;;
75758;SDS011;64371;47.566;19.086;2023-06-10T16:28:41;3.17;;;2.88;;
75758;SDS011;64371;47.566;19.086;2023-06-10T16:31:43;3.80;;;3.17;;
75758;SDS011;64371;47.566;19.086;2023-06-10T16:34:46;4.28;;;2.80;;
75758;SDS011;64371;47.566;19.086;2023-06-10T16:37:49;3.97;;;3.17;;
75758;SDS011;64371;47.566;19.086;2023-06-10T16:40:51;5.72;;;3.17;;
75758;SDS011;64371;47.566;19.086;2023-06-10T16:43:54;3.80;;;3.40;;
75758;SDS011;64371;47.566;19.086;2023-06-10T16:46:56;4.20;;;3.47;;
75758;SDS011;64371;47.566;19.086;2023-06-10T16:49:59;3.88;;;3.20;;
75758;SDS011;64371;47.566;19.086;2023-06-10T16:53:01;5.20;;;3.47;;
75758;SDS011;64371;47.566;19.086;2023-06-10T16:56:04;4.00;;;3.42;;
75758;SDS011;64371;47.566;19.086;2023-06-10T16:59:07;4.93;;;3.55;;
75758;SDS011;64371;47.566;19.086;2023-06-10T17:02:10;5.70;;;3.60;;
75758;SDS011;64371;47.566;19.086;2023-06-10T17:05:13;4.43;;;3.78;;
75758;SDS011;64371;47.566;19.086;2023-06-10T17:08:16;4.80;;;3.80;;
75758;SDS011;64371;47.566;19.086;2023-06-10T17:11:18;8.45;;;4.35;;
75758;SDS011;64371;47.566;19.086;2023-06-10T17:14:21;6.15;;;3.88;;
75758;SDS011;64371;47.566;19.086;2023-06-10T17:17:27;5.83;;;4.30;;
75758;SDS011;64371;47.566;19.086;2023-06-10T17:20:29;7.47;;;4.93;;
75758;SDS011;64371;47.566;19.086;2023-06-10T17:23:33;6.40;;;4.60;;
75758;SDS011;64371;47.566;19.086;2023-06-10T17:26:35;7.32;;;4.72;;
75758;SDS011;64371;47.566;19.086;2023-06-10T17:29:38;6.82;;;4.80;;
75758;SDS011;64371;47.566;19.086;2023-06-10T17:32:41;7.77;;;4.67;;
75758;SDS011;64371;47.566;19.086;2023-06-10T17:35:43;9.95;;;4.60;;
75758;SDS011;64371;47.566;19.086;2023-06-10T17:38:46;5.70;;;4.57;;
75758;SDS011;64371;47.566;19.086;2023-06-10T17:41:48;6.43;;;4.30;;
75758;SDS011;64371;47.566;19.086;2023-06-10T17:44:51;6.05;;;4.55;;
75758;SDS011;64371;47.566;19.086;2023-06-10T17:47:54;6.60;;;4.40;;
75758;SDS011;64371;47.566;19.086;2023-06-10T17:50:56;5.63;;;4.60;;
75758;SDS011;64371;47.566;19.086;2023-06-10T17:53:59;5.55;;;4.53;;
75758;SDS011;64371;47.566;19.086;2023-06-10T17:57:01;5.38;;;4.15;;
75758;SDS011;64371;47.566;19.086;2023-06-10T18:00:04;4.43;;;4.00;;
75758;SDS011;64371;47.566;19.086;2023-06-10T18:03:08;6.30;;;4.30;;
75758;SDS011;64371;47.566;19.086;2023-06-10T18:06:11;7.47;;;4.53;;
75758;SDS011;64371;47.566;19.086;2023-06-10T18:09:14;5.82;;;4.40;;
75758;SDS011;64371;47.566;19.086;2023-06-10T18:12:16;5.38;;;4.40;;
75758;SDS011;64371;47.566;19.086;2023-06-10T18:15:19;6.13;;;4.25;;
75758;SDS011;64371;47.566;19.086;2023-06-10T18:18:22;5.27;;;4.00;;
75758;SDS011;64371;47.566;19.086;2023-06-10T18:21:24;5.28;;;4.30;;